Time;durP1;ratioP1;P1;durP2;ratioP2;P2;SDS_P1;SDS_P2;PMS_P1;PMS_P2;Temp;Humidity;BMP_temperature;BMP_pressure;BME280_temperature;BME280_humidity;BME280_pressure;Samples;Min_cycle;Max_cycle;Signal;HPM_P1;HPM_P2
2021/11/07 00:04:42;;;;;;;5.07;1.70;;;;;;;;;;4812313;29;34598;-62
2021/11/07 00:07:16;;;;;;;6.90;1.98;;;;;;;;;;4812162;29;32335;-63
2021/11/07 00:12:15;;;;;;;3.70;1.45;;;;;;;;;;4812321;29;32377;-63
2021/11/07 00:14:47;;;;;;;3.33;1.67;;;;;;;;;;4812505;29;35247;-65
2021/11/07 00:17:14;;;;;;;4.22;1.98;;;;;;;;;;4812289;29;32451;-64
2021/11/07 00:19:46;;;;;;;3.33;1.85;;;;;;;;;;4810730;29;32399;-63
2021/11/07 00:22:26;;;;;;;6.82;1.85;;;;;;;;;;4810347;29;32510;-64
2021/11/07 00:24:59;;;;;;;4.68;2.88;;;;;;;;;;4812675;29;32118;-63
2021/11/07 00:30:20;;;;;;;4.20;1.90;;;;;;;;;;4812046;29;32743;-63
2021/11/07 00:38:02;;;;;;;5.07;1.70;;;;;;;;;;4811794;29;35633;-63
2021/11/07 00:40:41;;;;;;;4.03;1.73;;;;;;;;;;4811313;29;32447;-63
2021/11/07 00:43:14;;;;;;;6.10;2.47;;;;;;;;;;4811641;29;32109;-62
2021/11/07 00:45:46;;;;;;;5.85;1.83;;;;;;;;;;4812340;29;32342;-63
2021/11/07 00:48:51;;;;;;;6.10;2.72;;;;;;;;;;4811908;29;32549;-63
2021/11/07 00:54:03;;;;;;;5.63;1.83;;;;;;;;;;4812120;29;32121;-64
2021/11/07 00:59:02;;;;;;;5.18;1.98;;;;;;;;;;4811553;29;32278;-63
2021/11/07 01:01:35;;;;;;;5.75;2.10;;;;;;;;;;4811512;29;34244;-63
2021/11/07 01:04:04;;;;;;;8.48;2.85;;;;;;;;;;4811942;29;32511;-64
2021/11/07 01:06:31;;;;;;;6.80;2.75;;;;;;;;;;4811614;29;32426;-63
2021/11/07 01:09:00;;;;;;;8.27;2.20;;;;;;;;;;4811299;29;32465;-63
2021/11/07 01:11:27;;;;;;;7.35;3.20;;;;;;;;;;4811860;29;32397;-63
2021/11/07 01:13:55;;;;;;;5.60;2.88;;;;;;;;;;4811881;29;35101;-62
2021/11/07 01:16:22;;;;;;;5.75;2.20;;;;;;;;;;4811393;29;32486;-63
2021/11/07 01:18:49;;;;;;;6.68;1.70;;;;;;;;;;4811171;29;32244;-63
2021/11/07 01:21:18;;;;;;;5.53;1.90;;;;;;;;;;4809822;29;32279;-62
2021/11/07 01:24:13;;;;;;;4.38;1.88;;;;;;;;;;4811126;29;34226;-63
2021/11/07 01:29:11;;;;;;;5.57;2.15;;;;;;;;;;4811358;29;32325;-64
2021/11/07 01:31:38;;;;;;;5.03;1.98;;;;;;;;;;4810898;29;32533;-62
2021/11/07 01:34:08;;;;;;;3.35;1.90;;;;;;;;;;4810803;29;32378;-63
2021/11/07 01:36:57;;;;;;;4.60;1.60;;;;;;;;;;4810677;29;33993;-63
2021/11/07 01:39:43;;;;;;;3.78;1.45;;;;;;;;;;4810719;29;32612;-63
2021/11/07 01:42:17;;;;;;;4.72;2.03;;;;;;;;;;4811239;29;32870;-63
2021/11/07 01:45:00;;;;;;;4.63;1.90;;;;;;;;;;4811906;29;32483;-62
2021/11/07 01:47:27;;;;;;;4.53;2.55;;;;;;;;;;4810870;29;34539;-63
2021/11/07 01:49:54;;;;;;;3.50;1.73;;;;;;;;;;4811315;29;32505;-63
2021/11/07 01:52:24;;;;;;;2.35;1.52;;;;;;;;;;4811110;29;32732;-63
2021/11/07 01:55:04;;;;;;;3.05;1.65;;;;;;;;;;4811530;29;32444;-63
2021/11/07 01:57:35;;;;;;;2.88;1.70;;;;;;;;;;4811614;29;32200;-63
2021/11/07 02:00:09;;;;;;;3.28;1.60;;;;;;;;;;4811039;29;34099;-64
2021/11/07 02:02:37;;;;;;;7.07;2.40;;;;;;;;;;4809218;29;32330;-63
2021/11/07 02:05:06;;;;;;;3.45;1.80;;;;;;;;;;4811029;29;32479;-63
2021/11/07 02:07:33;;;;;;;3.45;2.00;;;;;;;;;;4811205;29;32323;-62
2021/11/07 02:10:00;;;;;;;3.47;1.77;;;;;;;;;;4810484;29;34613;-61
2021/11/07 02:12:27;;;;;;;2.88;1.65;;;;;;;;;;4810901;29;32389;-62
2021/11/07 02:14:55;;;;;;;7.10;1.60;;;;;;;;;;4811145;29;32599;-62
2021/11/07 02:17:22;;;;;;;2.63;1.58;;;;;;;;;;4811250;29;32430;-63
2021/11/07 02:19:49;;;;;;;2.90;2.17;;;;;;;;;;4811023;29;32353;-62
2021/11/07 02:22:17;;;;;;;6.18;1.63;;;;;;;;;;4810752;29;35878;-62
2021/11/07 02:24:44;;;;;;;4.07;1.52;;;;;;;;;;4810878;29;32444;-63
2021/11/07 02:27:11;;;;;;;5.55;1.52;;;;;;;;;;4810820;29;32352;-63
2021/11/07 02:29:38;;;;;;;4.70;1.58;;;;;;;;;;4810442;29;32420;-64
2021/11/07 02:32:07;;;;;;;3.88;1.60;;;;;;;;;;4810445;29;34258;-63
2021/11/07 02:34:34;;;;;;;2.85;1.50;;;;;;;;;;4810507;29;32492;-64
2021/11/07 02:37:01;;;;;;;3.15;1.73;;;;;;;;;;4810864;29;32334;-64
2021/11/07 02:39:29;;;;;;;3.65;1.80;;;;;;;;;;4810136;29;32393;-65
2021/11/07 02:41:56;;;;;;;6.28;1.65;;;;;;;;;;4810675;29;32441;-64
2021/11/07 02:44:30;;;;;;;2.47;2.05;;;;;;;;;;4810732;29;35197;-64
2021/11/07 02:46:57;;;;;;;3.20;1.42;;;;;;;;;;4810738;29;32449;-65
2021/11/07 02:49:24;;;;;;;3.13;2.55;;;;;;;;;;4809834;29;32381;-65
2021/11/07 02:51:50;;;;;;;3.25;2.25;;;;;;;;;;4809120;29;32367;-64
2021/11/07 02:54:18;;;;;;;3.95;1.75;;;;;;;;;;4810748;29;34315;-64
2021/11/07 02:56:45;;;;;;;;;;;;;;;;;;4810096;29;32628;-65
2021/11/07 02:59:19;;;;;;;5.75;1.70;;;;;;;;;;4810418;29;32409;-64
2021/11/07 03:01:47;;;;;;;4.53;1.73;;;;;;;;;;4810842;29;32189;-64
2021/11/07 03:04:13;;;;;;;5.78;1.67;;;;;;;;;;4810346;29;32327;-64
2021/11/07 03:06:42;;;;;;;3.20;1.73;;;;;;;;;;4810236;29;34214;-64
2021/11/07 03:09:15;;;;;;;5.18;1.67;;;;;;;;;;4809639;29;32628;-64
2021/11/07 03:11:43;;;;;;;5.93;1.88;;;;;;;;;;4809878;29;32287;-64
2021/11/07 03:14:14;;;;;;;4.07;1.92;;;;;;;;;;4809954;29;32158;-65
2021/11/07 03:16:43;;;;;;;5.80;1.58;;;;;;;;;;4809946;29;34090;-63
2021/11/07 03:19:10;;;;;;;6.88;1.75;;;;;;;;;;4810527;29;32582;-65
2021/11/07 03:21:37;;;;;;;;;;;;;;;;;;4810547;29;32273;-63
2021/11/07 03:24:05;;;;;;;4.15;1.70;;;;;;;;;;4810129;29;32174;-64
2021/11/07 03:26:33;;;;;;;3.90;1.67;;;;;;;;;;4810167;29;32328;-63
2021/11/07 03:29:02;;;;;;;3.17;1.65;;;;;;;;;;4809971;29;35574;-64
2021/11/07 03:31:41;;;;;;;5.35;1.77;;;;;;;;;;4809685;29;32871;-66
2021/11/07 03:34:19;;;;;;;4.30;1.63;;;;;;;;;;4810132;29;32350;-65
2021/11/07 03:36:49;;;;;;;4.18;1.92;;;;;;;;;;4810566;29;32511;-64
2021/11/07 03:39:17;;;;;;;4.78;1.90;;;;;;;;;;4809871;29;34664;-65
2021/11/07 03:41:47;;;;;;;2.63;1.60;;;;;;;;;;4810037;29;32326;-62
2021/11/07 03:44:15;;;;;;;4.15;1.58;;;;;;;;;;4809528;29;32439;-65
2021/11/07 03:46:44;;;;;;;3.25;1.80;;;;;;;;;;4809778;29;32431;-63
2021/11/07 03:49:11;;;;;;;4.45;2.03;;;;;;;;;;4809714;29;32470;-63
2021/11/07 03:51:38;;;;;;;3.88;1.55;;;;;;;;;;4809618;29;34239;-63
2021/11/07 03:54:07;;;;;;;4.28;1.85;;;;;;;;;;4809561;29;32585;-63
2021/11/07 03:56:34;;;;;;;6.70;2.10;;;;;;;;;;4810457;29;32337;-64
2021/11/07 03:59:01;;;;;;;3.70;1.92;;;;;;;;;;4811985;29;32322;-64
2021/11/07 04:01:28;;;;;;;6.15;2.08;;;;;;;;;;4811424;29;34189;-64
2021/11/07 04:03:56;;;;;;;5.35;2.00;;;;;;;;;;4812270;29;32267;-65
2021/11/07 04:06:24;;;;;;;5.93;3.33;;;;;;;;;;4812626;29;32298;-63
2021/11/07 04:08:51;;;;;;;5.75;2.33;;;;;;;;;;4812386;29;32814;-63
2021/11/07 04:11:17;;;;;;;4.30;2.30;;;;;;;;;;4812380;29;32414;-65
2021/11/07 04:13:47;;;;;;;3.13;2.00;;;;;;;;;;4812236;29;34615;-65
2021/11/07 04:16:15;;;;;;;4.72;2.00;;;;;;;;;;4812136;29;32393;-66
2021/11/07 04:18:46;;;;;;;5.10;1.90;;;;;;;;;;4812287;29;32336;-64
2021/11/07 04:21:15;;;;;;;2.28;1.80;;;;;;;;;;4812475;29;32346;-63
2021/11/07 04:23:42;;;;;;;2.95;2.63;;;;;;;;;;4811534;29;35905;-64
2021/11/07 04:26:08;;;;;;;4.38;1.77;;;;;;;;;;4812144;29;32841;-64
2021/11/07 04:28:35;;;;;;;3.70;1.83;;;;;;;;;;4811786;29;32515;-65
2021/11/07 04:31:01;;;;;;;2.60;1.52;;;;;;;;;;4811673;29;32368;-64
2021/11/07 04:33:29;;;;;;;3.60;1.75;;;;;;;;;;4812279;29;32432;-63
2021/11/07 04:35:55;;;;;;;3.00;1.60;;;;;;;;;;4812022;29;34710;-63
2021/11/07 04:38:24;;;;;;;2.78;1.50;;;;;;;;;;4811439;29;32236;-63
2021/11/07 04:40:50;;;;;;;3.03;1.58;;;;;;;;;;4811891;29;32740;-63
2021/11/07 04:43:17;;;;;;;2.42;1.50;;;;;;;;;;4811783;29;32511;-65
2021/11/07 04:45:44;;;;;;;4.35;2.58;;;;;;;;;;4811784;29;34294;-64
2021/11/07 04:48:11;;;;;;;3.65;2.63;;;;;;;;;;4812013;29;32350;-63
2021/11/07 04:50:38;;;;;;;2.67;1.40;;;;;;;;;;4811857;29;32357;-63
2021/11/07 04:53:05;;;;;;;4.97;1.70;;;;;;;;;;4811815;29;32357;-63
2021/11/07 04:55:36;;;;;;;3.65;1.55;;;;;;;;;;4811626;29;32328;-64
2021/11/07 04:58:03;;;;;;;2.45;1.75;;;;;;;;;;4811496;29;34906;-65
2021/11/07 05:00:31;;;;;;;;;;;;;;;;;;4811687;29;32396;-63
2021/11/07 05:02:58;;;;;;;2.90;1.75;;;;;;;;;;4811375;29;32484;-63
2021/11/07 05:05:25;;;;;;;3.42;1.67;;;;;;;;;;4811649;29;32291;-62
2021/11/07 05:07:53;;;;;;;2.72;1.60;;;;;;;;;;4810216;29;34116;-62
2021/11/07 05:10:20;;;;;;;3.15;1.77;;;;;;;;;;4811363;29;32532;-63
2021/11/07 05:12:49;;;;;;;3.75;1.70;;;;;;;;;;4811580;29;32382;-63
2021/11/07 05:15:16;;;;;;;3.50;1.80;;;;;;;;;;4812011;29;32409;-63
2021/11/07 05:17:43;;;;;;;6.57;2.38;;;;;;;;;;4810852;29;32354;-64
2021/11/07 05:20:11;;;;;;;4.32;2.88;;;;;;;;;;4811363;29;34473;-63
2021/11/07 05:22:39;;;;;;;3.58;1.83;;;;;;;;;;4811232;29;32476;-63
2021/11/07 05:25:06;;;;;;;4.68;2.22;;;;;;;;;;4811616;29;32530;-64
2021/11/07 05:27:33;;;;;;;6.15;2.08;;;;;;;;;;4811837;29;32354;-63
2021/11/07 05:30:03;;;;;;;4.18;2.28;;;;;;;;;;4811005;29;34042;-64
2021/11/07 05:32:29;;;;;;;5.68;2.25;;;;;;;;;;4811422;29;32086;-64
2021/11/07 05:34:56;;;;;;;5.93;2.45;;;;;;;;;;4811728;29;32218;-64
2021/11/07 05:37:24;;;;;;;3.70;2.22;;;;;;;;;;4809685;29;32308;-64
2021/11/07 05:39:51;;;;;;;5.05;2.20;;;;;;;;;;4798528;29;32377;-63
2021/11/07 05:42:17;;;;;;;6.95;2.30;;;;;;;;;;4792295;29;35128;-68
2021/11/07 05:44:44;;;;;;;3.40;1.98;;;;;;;;;;4794966;29;32608;-63
2021/11/07 05:47:12;;;;;;;4.85;2.17;;;;;;;;;;4808643;29;32410;-65
2021/11/07 05:49:39;;;;;;;3.22;1.98;;;;;;;;;;4808094;29;32742;-65
2021/11/07 05:52:06;;;;;;;4.95;2.33;;;;;;;;;;4808267;29;34149;-65
2021/11/07 05:54:33;;;;;;;4.55;1.92;;;;;;;;;;4805901;29;32463;-64
2021/11/07 05:57:01;;;;;;;4.93;2.10;;;;;;;;;;4809331;29;33101;-64
2021/11/07 05:59:29;;;;;;;3.88;2.25;;;;;;;;;;4810087;29;32398;-65
2021/11/07 06:01:55;;;;;;;4.78;1.92;;;;;;;;;;4810130;29;32459;-65
2021/11/07 06:04:26;;;;;;;6.72;3.55;;;;;;;;;;4810394;29;35540;-67
2021/11/07 06:06:53;;;;;;;3.35;2.00;;;;;;;;;;4808861;29;32489;-67
2021/11/07 06:09:20;;;;;;;5.95;2.30;;;;;;;;;;4808362;29;32574;-67
2021/11/07 06:11:47;;;;;;;6.03;2.33;;;;;;;;;;4808966;29;32735;-68
2021/11/07 06:14:14;;;;;;;4.82;3.30;;;;;;;;;;4808216;29;35676;-67
2021/11/07 06:16:41;;;;;;;4.50;2.63;;;;;;;;;;4810131;29;32401;-67
2021/11/07 06:19:08;;;;;;;4.68;2.17;;;;;;;;;;4808426;29;34117;-68
2021/11/07 06:21:37;;;;;;;5.63;2.75;;;;;;;;;;4808225;29;33222;-66
2021/11/07 06:24:09;;;;;;;3.67;2.63;;;;;;;;;;4807427;29;32575;-65
2021/11/07 06:26:35;;;;;;;5.25;3.60;;;;;;;;;;4807663;29;35536;-65
2021/11/07 06:29:02;;;;;;;4.57;2.30;;;;;;;;;;4808188;29;32485;-65
2021/11/07 06:31:29;;;;;;;4.05;2.50;;;;;;;;;;4807709;29;32547;-65
2021/11/07 06:33:56;;;;;;;5.32;2.42;;;;;;;;;;4808457;29;32534;-65
2021/11/07 06:36:22;;;;;;;3.25;2.05;;;;;;;;;;4806888;29;35942;-65
2021/11/07 06:38:51;;;;;;;4.78;3.45;;;;;;;;;;4807860;29;32491;-67
2021/11/07 06:41:17;;;;;;;6.03;2.63;;;;;;;;;;4807511;29;32447;-66
2021/11/07 06:43:44;;;;;;;5.25;3.33;;;;;;;;;;4808061;29;32379;-66
2021/11/07 06:46:11;;;;;;;4.80;3.22;;;;;;;;;;4807611;29;32603;-64
2021/11/07 06:48:37;;;;;;;5.60;3.00;;;;;;;;;;4807689;29;34422;-64
2021/11/07 06:51:04;;;;;;;6.07;3.58;;;;;;;;;;4808736;29;32463;-65
2021/11/07 06:53:30;;;;;;;4.65;2.20;;;;;;;;;;4808211;29;32382;-66
2021/11/07 06:55:58;;;;;;;3.50;2.17;;;;;;;;;;4808149;29;32478;-64
2021/11/07 06:58:25;;;;;;;3.70;2.55;;;;;;;;;;4807699;29;34294;-65
2021/11/07 07:00:51;;;;;;;4.05;2.40;;;;;;;;;;4807382;29;32590;-65
2021/11/07 07:03:18;;;;;;;6.78;2.67;;;;;;;;;;4807783;29;33584;-64
2021/11/07 07:05:45;;;;;;;4.13;2.28;;;;;;;;;;4808123;29;32488;-65
2021/11/07 07:08:17;;;;;;;4.03;2.17;;;;;;;;;;4807557;29;32467;-64
2021/11/07 07:10:57;;;;;;;5.75;1.92;;;;;;;;;;4807914;29;33977;-64
2021/11/07 07:13:41;;;;;;;5.13;2.50;;;;;;;;;;4808092;29;32828;-64
2021/11/07 07:16:20;;;;;;;4.22;2.33;;;;;;;;;;4808047;29;32385;-65
2021/11/07 07:24:36;;;;;;;4.68;2.35;;;;;;;;;;4800545;29;32459;-65
2021/11/07 07:35:11;;;;;;;4.60;2.25;;;;;;;;;;4808436;29;32586;-66
2021/11/07 07:37:37;;;;;;;3.22;2.25;;;;;;;;;;4808073;29;32503;-65
2021/11/07 07:40:06;;;;;;;3.30;2.17;;;;;;;;;;4806148;29;32564;-66
2021/11/07 07:42:33;;;;;;;4.68;2.20;;;;;;;;;;4808017;29;32396;-64
2021/11/07 07:45:03;;;;;;;4.43;2.50;;;;;;;;;;4808194;29;34074;-66
2021/11/07 07:47:30;;;;;;;3.28;2.38;;;;;;;;;;4807488;29;32724;-65
2021/11/07 07:49:56;;;;;;;;;;;;;;;;;;4808574;29;32619;-66
2021/11/07 07:52:27;;;;;;;5.35;2.20;;;;;;;;;;4807440;29;32500;-66
2021/11/07 07:54:54;;;;;;;6.13;2.50;;;;;;;;;;4807694;29;32482;-63
2021/11/07 07:57:21;;;;;;;4.57;2.20;;;;;;;;;;4807346;29;32952;-65
2021/11/07 07:59:48;;;;;;;4.75;2.33;;;;;;;;;;4805640;29;32439;-64
2021/11/07 08:02:17;;;;;;;3.50;2.40;;;;;;;;;;4807474;29;32369;-65
2021/11/07 08:04:44;;;;;;;5.30;2.35;;;;;;;;;;4806773;29;32695;-65
2021/11/07 08:07:11;;;;;;;4.85;2.55;;;;;;;;;;4805395;29;34050;-64
2021/11/07 08:09:41;;;;;;;3.70;2.33;;;;;;;;;;4807120;29;32359;-63
2021/11/07 08:12:08;;;;;;;4.57;2.17;;;;;;;;;;4807052;29;32480;-64
2021/11/07 08:14:41;;;;;;;4.97;2.50;;;;;;;;;;4806317;29;56088;-65
2021/11/07 08:17:08;;;;;;;3.55;2.40;;;;;;;;;;4807338;29;32483;-64
2021/11/07 08:19:36;;;;;;;4.40;2.00;;;;;;;;;;4807061;29;32585;-65
2021/11/07 08:22:03;;;;;;;4.13;2.40;;;;;;;;;;4807451;29;32594;-64
2021/11/07 08:24:30;;;;;;;3.90;2.78;;;;;;;;;;4807376;29;32539;-66
2021/11/07 08:26:58;;;;;;;5.38;2.20;;;;;;;;;;4807156;29;32484;-65
2021/11/07 08:29:26;;;;;;;4.10;2.13;;;;;;;;;;4806799;29;34200;-66
2021/11/07 08:31:53;;;;;;;3.15;2.00;;;;;;;;;;4806903;29;32493;-64
2021/11/07 08:34:25;;;;;;;4.82;2.85;;;;;;;;;;4805399;29;32621;-68
2021/11/07 08:39:35;;;;;;;3.55;2.15;;;;;;;;;;4806875;29;32130;-63
2021/11/07 08:42:07;;;;;;;4.00;2.25;;;;;;;;;;4807452;29;32912;-65
2021/11/07 09:02:07;;;;;;;4.88;2.15;;;;;;;;;;4808087;29;32607;-67
2021/11/07 09:04:23;;;;;;;5.53;2.13;;;;;;;;;;4805981;29;32431;-64
2021/11/07 09:09:26;;;;;;;5.00;2.47;;;;;;;;;;4807407;29;32507;-63
2021/11/07 09:11:55;;;;;;;3.05;2.00;;;;;;;;;;4806474;29;33217;-64
2021/11/07 09:14:30;;;;;;;3.22;2.00;;;;;;;;;;4806906;29;32544;-66
2021/11/07 09:16:58;;;;;;;3.08;2.72;;;;;;;;;;4806559;29;35507;-66
2021/11/07 09:19:27;;;;;;;2.92;2.05;;;;;;;;;;4807611;29;33025;-65
2021/11/07 09:22:08;;;;;;;2.97;2.13;;;;;;;;;;4805757;29;32525;-65
2021/11/07 09:27:26;;;;;;;3.63;2.20;;;;;;;;;;4811472;29;33214;-65
2021/11/07 09:33:01;;;;;;;4.78;2.28;;;;;;;;;;4809193;29;32690;-68
2021/11/07 09:35:32;;;;;;;3.50;2.13;;;;;;;;;;4807395;29;32662;-71
2021/11/07 09:38:06;;;;;;;3.70;2.40;;;;;;;;;;4810229;29;32326;-67
2021/11/07 09:40:38;;;;;;;4.00;2.15;;;;;;;;;;4809758;29;34397;-68
2021/11/07 09:43:25;;;;;;;4.07;3.03;;;;;;;;;;4805922;29;32381;-65
2021/11/07 09:46:02;;;;;;;3.15;2.47;;;;;;;;;;4804526;29;32473;-67
2021/11/07 09:48:33;;;;;;;3.65;2.40;;;;;;;;;;4809162;29;32619;-65
2021/11/07 09:51:00;;;;;;;3.05;2.03;;;;;;;;;;4792342;29;34244;-65
2021/11/07 09:53:27;;;;;;;4.72;2.20;;;;;;;;;;4809806;29;32336;-68
2021/11/07 09:55:55;;;;;;;4.07;2.15;;;;;;;;;;4812024;29;32383;-67
2021/11/07 09:58:22;;;;;;;5.93;2.20;;;;;;;;;;4813581;29;32600;-68
2021/11/07 10:00:51;;;;;;;;;;;;;;;;;;4810278;29;32468;-67
2021/11/07 10:03:21;;;;;;;2.45;1.88;;;;;;;;;;4810016;29;35117;-68
2021/11/07 10:05:52;;;;;;;2.58;1.98;;;;;;;;;;4809599;29;32593;-66
2021/11/07 10:08:19;;;;;;;3.60;2.03;;;;;;;;;;4808625;29;32444;-65
2021/11/07 10:11:02;;;;;;;3.47;1.90;;;;;;;;;;4810587;29;32733;-65
2021/11/07 10:13:32;;;;;;;2.78;1.92;;;;;;;;;;4809748;29;33945;-65
2021/11/07 10:16:05;;;;;;;5.22;1.98;;;;;;;;;;4810321;29;32416;-66
2021/11/07 10:18:42;;;;;;;3.65;1.90;;;;;;;;;;4808186;29;32409;-65
2021/11/07 10:21:19;;;;;;;3.40;1.90;;;;;;;;;;4806271;29;32521;-64
2021/11/07 10:23:50;;;;;;;4.03;2.10;;;;;;;;;;4807435;29;32670;-65
2021/11/07 10:26:27;;;;;;;3.45;1.80;;;;;;;;;;4809463;29;34691;-64
2021/11/07 10:28:59;;;;;;;3.08;2.08;;;;;;;;;;4806673;29;34003;-65
2021/11/07 10:31:31;;;;;;;3.28;2.08;;;;;;;;;;4806580;29;32428;-65
2021/11/07 10:34:13;;;;;;;4.18;2.00;;;;;;;;;;4809113;29;32605;-67
2021/11/07 10:37:15;;;;;;;3.42;2.15;;;;;;;;;;4789392;29;34592;-64
2021/11/07 10:45:21;;;;;;;3.67;1.83;;;;;;;;;;4809117;29;32116;-67
2021/11/07 10:53:17;;;;;;;3.70;2.10;;;;;;;;;;4803226;29;32556;-64
2021/11/07 10:55:47;;;;;;;2.95;1.83;;;;;;;;;;4806541;29;32359;-67
2021/11/07 10:58:14;;;;;;;3.47;1.83;;;;;;;;;;4808556;29;32647;-66
2021/11/07 11:00:43;;;;;;;2.53;1.83;;;;;;;;;;4803060;29;34688;-66
2021/11/07 11:03:13;;;;;;;4.22;1.80;;;;;;;;;;4808702;29;32394;-64
2021/11/07 11:05:52;;;;;;;2.00;1.67;;;;;;;;;;4808060;29;32398;-65
2021/11/07 11:08:24;;;;;;;3.65;2.15;;;;;;;;;;4811598;29;32728;-65
2021/11/07 11:10:59;;;;;;;2.72;2.05;;;;;;;;;;4812200;29;32466;-67
2021/11/07 11:35:00;;;;;;;3.47;1.83;;;;;;;;;;4806335;29;32905;-65
2021/11/07 11:40:12;;;;;;;6.15;3.35;;;;;;;;;;4808155;29;33134;-67
2021/11/07 11:42:47;;;;;;;8.15;3.30;;;;;;;;;;4809057;29;32641;-65
2021/11/07 11:45:18;;;;;;;5.78;2.65;;;;;;;;;;4807250;29;32588;-68
2021/11/07 11:48:37;;;;;;;4.65;3.20;;;;;;;;;;4809264;29;36139;-67
2021/11/07 11:54:17;;;;;;;4.50;2.60;;;;;;;;;;4808321;29;32480;-67
2021/11/07 12:02:12;;;;;;;6.65;2.30;;;;;;;;;;4797637;29;34541;-67
2021/11/07 12:05:08;;;;;;;3.72;2.20;;;;;;;;;;4801956;29;32476;-66
2021/11/07 12:07:44;;;;;;;4.57;1.83;;;;;;;;;;4806240;29;32571;-68
2021/11/07 12:10:27;;;;;;;3.40;2.20;;;;;;;;;;4805378;29;32763;-67
2021/11/07 12:13:02;;;;;;;2.78;1.83;;;;;;;;;;4806473;29;36125;-65
2021/11/07 12:15:51;;;;;;;4.60;2.33;;;;;;;;;;4806398;29;32889;-67
2021/11/07 12:18:17;;;;;;;3.30;1.90;;;;;;;;;;4804692;29;32463;-68
2021/11/07 12:20:56;;;;;;;3.03;2.47;;;;;;;;;;4808130;29;32310;-67
2021/11/07 12:23:28;;;;;;;3.17;1.90;;;;;;;;;;4807462;29;32774;-68
2021/11/07 12:25:56;;;;;;;3.65;2.15;;;;;;;;;;4807935;29;34941;-68
2021/11/07 12:28:44;;;;;;;3.92;2.10;;;;;;;;;;4807128;29;32451;-66
2021/11/07 12:31:11;;;;;;;3.85;2.00;;;;;;;;;;4803943;29;32467;-66
2021/11/07 12:33:49;;;;;;;;;;;;;;;;;;4807248;29;32780;-68
2021/11/07 12:42:19;;;;;;;4.53;1.85;;;;;;;;;;4806341;29;32480;-66
2021/11/07 12:44:51;;;;;;;3.72;1.80;;;;;;;;;;4806665;29;32879;-66
2021/11/07 12:47:24;;;;;;;2.45;1.85;;;;;;;;;;4807202;29;32558;-66
2021/11/07 12:49:57;;;;;;;2.58;1.83;;;;;;;;;;4808293;29;35782;-67
2021/11/07 12:52:28;;;;;;;4.38;2.05;;;;;;;;;;4808189;29;33139;-67
2021/11/07 12:54:55;;;;;;;3.30;1.80;;;;;;;;;;4807056;29;32482;-67
2021/11/07 12:57:23;;;;;;;4.95;1.83;;;;;;;;;;4807493;29;32443;-67
2021/11/07 12:59:51;;;;;;;2.17;1.80;;;;;;;;;;4809500;29;35347;-67
2021/11/07 13:02:25;;;;;;;2.72;1.58;;;;;;;;;;4816815;29;33279;-69
2021/11/07 13:05:01;;;;;;;4.15;1.73;;;;;;;;;;4821532;29;32440;-69
2021/11/07 13:07:33;;;;;;;4.43;2.85;;;;;;;;;;4811806;29;32428;-67
2021/11/07 13:10:05;;;;;;;2.75;1.77;;;;;;;;;;4808959;29;32675;-68
2021/11/07 13:12:40;;;;;;;3.10;1.63;;;;;;;;;;4806203;29;35198;-69
2021/11/07 13:15:35;;;;;;;4.00;1.90;;;;;;;;;;4810950;29;32600;-65
2021/11/07 13:18:37;;;;;;;5.20;2.92;;;;;;;;;;4811474;29;31801;-68
2021/11/07 13:31:43;;;;;;;2.80;1.90;;;;;;;;;;4809037;29;32807;-68
2021/11/07 13:34:18;;;;;;;4.40;1.73;;;;;;;;;;4808821;29;32268;-68
2021/11/07 13:36:47;;;;;;;2.70;1.90;;;;;;;;;;4810044;29;34763;-66
2021/11/07 13:39:25;;;;;;;2.67;2.17;;;;;;;;;;4810034;29;32611;-67
2021/11/07 13:41:55;;;;;;;5.63;2.00;;;;;;;;;;4810528;29;32357;-67
2021/11/07 13:44:24;;;;;;;4.85;2.40;;;;;;;;;;4809541;29;32360;-68
2021/11/07 13:46:53;;;;;;;3.30;2.03;;;;;;;;;;4809833;29;34198;-71
2021/11/07 13:49:19;;;;;;;3.22;2.00;;;;;;;;;;4809206;29;32421;-68
2021/11/07 13:51:56;;;;;;;4.50;2.55;;;;;;;;;;4810775;29;32367;-66
2021/11/07 13:54:24;;;;;;;4.15;2.50;;;;;;;;;;4808334;29;32211;-68
2021/11/07 13:57:11;;;;;;;4.57;2.40;;;;;;;;;;4810220;29;32352;-69
2021/11/07 13:59:40;;;;;;;3.03;2.42;;;;;;;;;;4807524;29;33944;-67
2021/11/07 14:02:16;;;;;;;3.47;2.70;;;;;;;;;;4810077;29;32561;-67
2021/11/07 14:04:46;;;;;;;4.22;2.83;;;;;;;;;;4809247;29;32345;-67
2021/11/07 14:07:21;;;;;;;2.50;2.22;;;;;;;;;;4809782;29;32480;-68
2021/11/07 14:10:13;;;;;;;4.68;3.78;;;;;;;;;;4808584;29;36329;-67
2021/11/07 14:12:43;;;;;;;6.05;3.10;;;;;;;;;;4802203;29;32617;-68
2021/11/07 14:15:18;;;;;;;5.03;3.75;;;;;;;;;;4804078;29;32620;-70
2021/11/07 14:17:47;;;;;;;3.60;3.03;;;;;;;;;;4806137;29;32558;-68
2021/11/07 14:20:33;;;;;;;3.20;2.35;;;;;;;;;;4804711;29;32674;-65
2021/11/07 14:23:06;;;;;;;2.90;1.85;;;;;;;;;;4809291;29;35351;-68
2021/11/07 14:26:11;;;;;;;2.30;1.80;;;;;;;;;;4808764;29;32434;-68
2021/11/07 14:29:01;;;;;;;4.28;2.33;;;;;;;;;;4808557;29;32491;-69
2021/11/07 14:31:34;;;;;;;3.08;2.40;;;;;;;;;;4809412;29;32560;-69
2021/11/07 14:34:05;;;;;;;2.75;2.55;;;;;;;;;;4809671;29;35228;-64
2021/11/07 14:36:45;;;;;;;3.05;1.60;;;;;;;;;;4806724;29;32412;-64
2021/11/07 14:42:38;;;;;;;2.22;1.25;;;;;;;;;;4809425;29;32452;-67
2021/11/07 14:55:53;;;;;;;2.88;1.85;;;;;;;;;;4808567;29;32632;-67
2021/11/07 15:01:01;;;;;;;3.30;1.92;;;;;;;;;;4807418;29;32586;-64
2021/11/07 15:03:33;;;;;;;3.25;1.48;;;;;;;;;;4807477;29;32389;-65
2021/11/07 15:09:00;;;;;;;1.98;1.23;;;;;;;;;;4808622;29;32409;-67
2021/11/07 15:12:11;;;;;;;2.28;1.20;;;;;;;;;;4805550;29;35552;-66
2021/11/07 15:15:20;;;;;;;1.80;1.40;;;;;;;;;;4804706;29;32433;-65
2021/11/07 15:17:37;;;;;;;2.13;1.40;;;;;;;;;;4807270;29;32129;-65
2021/11/07 15:20:19;;;;;;;1.75;1.35;;;;;;;;;;4807261;29;32388;-66
2021/11/07 15:22:50;;;;;;;1.95;1.45;;;;;;;;;;4803261;29;34332;-64
2021/11/07 15:25:19;;;;;;;1.88;1.33;;;;;;;;;;4808505;29;32337;-65
2021/11/07 15:27:56;;;;;;;1.65;1.25;;;;;;;;;;4809203;29;32514;-67
2021/11/07 15:30:27;;;;;;;3.38;1.30;;;;;;;;;;4808782;29;32670;-66
2021/11/07 15:32:54;;;;;;;2.50;1.27;;;;;;;;;;4807888;29;32486;-65
2021/11/07 15:35:22;;;;;;;2.35;1.48;;;;;;;;;;4808661;29;34259;-67
2021/11/07 15:37:50;;;;;;;2.33;1.67;;;;;;;;;;4819708;29;32456;-67
2021/11/07 15:40:25;;;;;;;2.38;1.30;;;;;;;;;;4805772;29;32643;-67
2021/11/07 15:42:51;;;;;;;2.58;1.33;;;;;;;;;;4808287;29;32437;-65
2021/11/07 15:45:21;;;;;;;2.47;1.50;;;;;;;;;;4805818;29;36474;-65
2021/11/07 16:11:48;;;;;;;3.78;1.67;;;;;;;;;;4810563;29;32857;-67
2021/11/07 16:17:10;;;;;;;2.67;1.35;;;;;;;;;;4788071;29;32409;-66
2021/11/07 16:19:42;;;;;;;4.22;1.40;;;;;;;;;;4802602;29;32513;-65
2021/11/07 16:22:09;;;;;;;2.28;2.05;;;;;;;;;;4807402;29;34949;-66
2021/11/07 16:24:36;;;;;;;2.10;1.30;;;;;;;;;;4805916;29;32448;-66
2021/11/07 16:27:05;;;;;;;2.65;1.60;;;;;;;;;;4802810;29;32490;-65
2021/11/07 16:29:33;;;;;;;2.70;1.55;;;;;;;;;;4806676;29;32450;-65
2021/11/07 16:32:09;;;;;;;2.08;1.63;;;;;;;;;;4806016;29;34985;-64
2021/11/07 16:34:46;;;;;;;2.05;1.50;;;;;;;;;;4799852;29;32432;-64
2021/11/07 16:37:19;;;;;;;2.50;1.20;;;;;;;;;;4806666;29;33765;-65
2021/11/07 16:39:53;;;;;;;2.75;1.50;;;;;;;;;;4801477;29;32761;-64
2021/11/07 16:42:21;;;;;;;2.08;1.20;;;;;;;;;;4804086;29;33055;-66
2021/11/07 16:44:48;;;;;;;2.55;1.98;;;;;;;;;;4806027;29;35673;-64
2021/11/07 16:47:21;;;;;;;2.33;1.40;;;;;;;;;;4803365;29;32597;-67
2021/11/07 16:49:49;;;;;;;;;;;;;;;;;;4806319;29;32540;-65
2021/11/07 16:52:19;;;;;;;2.05;1.10;;;;;;;;;;4807353;29;32999;-63
2021/11/07 16:54:58;;;;;;;2.30;1.20;;;;;;;;;;4806198;29;35417;-64
2021/11/07 16:57:28;;;;;;;1.95;1.27;;;;;;;;;;4806394;29;33720;-64
2021/11/07 17:05:06;;;;;;;4.75;1.30;;;;;;;;;;4806774;29;32582;-64
2021/11/07 17:07:44;;;;;;;2.55;1.27;;;;;;;;;;4821755;29;33957;-63
2021/11/07 17:10:12;;;;;;;3.15;1.45;;;;;;;;;;4807228;29;32453;-64
2021/11/07 17:12:45;;;;;;;2.58;2.08;;;;;;;;;;4807670;29;32548;-63
2021/11/07 17:15:21;;;;;;;3.92;1.63;;;;;;;;;;4807406;29;33142;-65
2021/11/07 17:17:56;;;;;;;3.90;1.50;;;;;;;;;;4807081;29;34716;-67
2021/11/07 17:23:09;;;;;;;2.80;1.30;;;;;;;;;;4806274;29;32478;-67
2021/11/07 17:25:42;;;;;;;5.68;2.55;;;;;;;;;;4806023;29;32475;-65
2021/11/07 17:30:44;;;;;;;2.40;2.10;;;;;;;;;;4808574;29;35344;-66
2021/11/07 17:33:19;;;;;;;2.35;1.33;;;;;;;;;;4809997;29;32326;-66
2021/11/07 17:36:00;;;;;;;2.70;1.60;;;;;;;;;;4810457;29;32623;-68
2021/11/07 17:41:06;;;;;;;1.92;1.20;;;;;;;;;;4807898;29;35680;-68
2021/11/07 17:54:42;;;;;;;3.17;1.45;;;;;;;;;;4808558;29;34705;-66
2021/11/07 17:57:13;;;;;;;3.15;1.42;;;;;;;;;;4810695;29;32443;-66
2021/11/07 17:59:40;;;;;;;5.65;1.50;;;;;;;;;;4809978;29;32916;-68
2021/11/07 18:02:09;;;;;;;3.88;1.50;;;;;;;;;;4810279;29;32305;-68
2021/11/07 18:04:37;;;;;;;3.85;1.30;;;;;;;;;;4809727;29;34469;-68
2021/11/07 18:09:39;;;;;;;4.13;1.35;;;;;;;;;;4809446;29;32464;-70
2021/11/07 18:12:14;;;;;;;2.53;1.35;;;;;;;;;;4810944;29;32537;-68
2021/11/07 18:14:42;;;;;;;2.92;1.50;;;;;;;;;;4809651;29;32435;-68
2021/11/07 18:17:09;;;;;;;3.10;1.27;;;;;;;;;;4810217;29;34064;-66
2021/11/07 18:19:35;;;;;;;4.43;1.38;;;;;;;;;;4810587;29;32397;-66
2021/11/07 18:22:18;;;;;;;3.65;1.95;;;;;;;;;;4808910;29;32536;-67
2021/11/07 18:24:57;;;;;;;3.63;2.20;;;;;;;;;;4809601;29;32542;-66
2021/11/07 18:27:27;;;;;;;6.00;1.75;;;;;;;;;;4807665;29;34060;-68